Time;durP1;ratioP1;P1;durP2;ratioP2;P2;SDS_P1;SDS_P2;PMS_P1;PMS_P2;Temp;Humidity;BMP_temperature;BMP_pressure;BME280_temperature;BME280_humidity;BME280_pressure;Samples;Min_cycle;Max_cycle;Signal;HPM_P1;HPM_P2
2024/01/09 00:02:19;;;;;;;;;;;;;;;;;;5044997;28;19916;-74
2024/01/09 00:05:05;;;;;;;;;;;;;;;;;;5034431;28;19971;-74
2024/01/09 00:07:51;;;;;;;;;;;;;;;;;;5039237;28;19913;-74
2024/01/09 00:10:39;;;;;;;;;;;;;;;;;;5055625;28;20206;-74
2024/01/09 00:13:25;;;;;;;;;;;;;;;;;;5052271;28;19913;-74
2024/01/09 00:16:12;;;;;;;;;;;;;;;;;;5055450;28;19917;-74
2024/01/09 00:18:58;;;;;;;;;;;;;;;;;;5053457;28;19917;-74
2024/01/09 00:21:47;;;;;;;;;;;;;;;;;;5049483;28;19996;-74
2024/01/09 00:24:33;;;;;;;;;;;;;;;;;;5046959;28;19920;-74
2024/01/09 00:27:20;;;;;;;;;;;;;;;;;;5047317;28;19913;-74
2024/01/09 00:30:06;;;;;;;;;;;;;;;;;;5049924;28;19917;-74
2024/01/09 00:32:52;;;;;;;;;;;;;;;;;;5054233;28;19912;-74
2024/01/09 00:35:38;;;;;;;;;;;;;;;;;;5054663;28;19955;-74
2024/01/09 00:38:25;;;;;;;;;;;;;;;;;;5053976;28;20331;-74
2024/01/09 00:41:11;;;;;;;;;;;;;;;;;;5052830;28;19924;-74
2024/01/09 00:43:57;;;;;;;;;;;;;;;;;;5052425;28;19912;-74
2024/01/09 00:46:43;;;;;;;;;;;;;;;;;;5054245;28;19913;-74
2024/01/09 00:49:29;;;;;;;;;;;;;;;;;;5049117;28;19924;-74
2024/01/09 00:52:16;;;;;;;;;;;;;;;;;;5044011;28;20306;-74
2024/01/09 00:55:02;;;;;;;;;;;;;;;;;;5038285;28;19921;-74
2024/01/09 00:57:48;;;;;;;;;;;;;;;;;;5047345;28;19917;-74
2024/01/09 01:00:34;;;;;;;;;;;;;;;;;;5053879;28;19921;-74
2024/01/09 01:03:21;;;;;;;;;;;;;;;;;;5052161;28;19945;-74
2024/01/09 01:06:07;;;;;;;;;;;;;;;;;;5053930;28;20315;-74
2024/01/09 01:08:53;;;;;;;;;;;;;;;;;;5038058;28;19959;-74
2024/01/09 01:11:39;;;;;;;;;;;;;;;;;;5052977;28;19917;-74
2024/01/09 01:14:25;;;;;;;;;;;;;;;;;;5051662;28;20523;-74
2024/01/09 01:17:12;;;;;;;;;;;;;;;;;;5053557;28;19974;-74
2024/01/09 01:19:58;;;;;;;;;;;;;;;;;;5051224;28;19963;-74
2024/01/09 01:22:44;;;;;;;;;;;;;;;;;;5044077;28;20353;-74
2024/01/09 01:25:30;;;;;;;;;;;;;;;;;;5051576;28;19978;-74
2024/01/09 01:28:17;;;;;;;;;;;;;;;;;;5052657;28;20342;-74
2024/01/09 01:31:03;;;;;;;;;;;;;;;;;;5054408;28;19999;-74
2024/01/09 01:33:49;;;;;;;;;;;;;;;;;;5053925;28;19943;-74
2024/01/09 01:36:36;;;;;;;;;;;;;;;;;;5032902;28;19944;-74
2024/01/09 01:39:22;;;;;;;;;;;;;;;;;;5043317;28;19924;-74
2024/01/09 01:42:08;;;;;;;;;;;;;;;;;;5051722;28;20351;-74
2024/01/09 01:44:55;;;;;;;;;;;;;;;;;;5052564;28;20002;-74
2024/01/09 01:47:41;;;;;;;;;;;;;;;;;;5052232;28;20404;-74
2024/01/09 01:50:27;;;;;;;;;;;;;;;;;;5052677;28;19932;-74
2024/01/09 01:53:13;;;;;;;;;;;;;;;;;;5053201;28;20003;-74
2024/01/09 01:55:59;;;;;;;;;;;;;;;;;;5054075;28;19916;-74
2024/01/09 01:58:46;;;;;;;;;;;;;;;;;;5044047;28;20670;-74
2024/01/09 02:01:32;;;;;;;;;;;;;;;;;;5033668;28;19916;-74
2024/01/09 02:04:18;;;;;;;;;;;;;;;;;;5032460;28;19916;-74
2024/01/09 02:07:04;;;;;;;;;;;;;;;;;;5050699;28;19920;-74
2024/01/09 02:09:53;;;;;;;;;;;;;;;;;;5043955;28;19913;-74
2024/01/09 02:12:39;;;;;;;;;;;;;;;;;;5052237;28;20364;-74
2024/01/09 02:15:25;;;;;;;;;;;;;;;;;;5053941;28;19925;-75
2024/01/09 02:18:11;;;;;;;;;;;;;;;;;;5053383;28;19917;-74
2024/01/09 02:20:57;;;;;;;;;;;;;;;;;;5051791;28;20007;-74
2024/01/09 02:23:44;;;;;;;;;;;;;;;;;;5052181;28;19948;-74
2024/01/09 02:26:31;;;;;;;;;;;;;;;;;;5051783;28;19913;-74
2024/01/09 02:29:17;;;;;;;;;;;;;;;;;;5054056;28;19917;-74
2024/01/09 02:32:03;;;;;;;;;;;;;;;;;;5050566;28;19924;-74
2024/01/09 02:34:49;;;;;;;;;;;;;;;;;;5037189;28;19921;-74
2024/01/09 02:37:36;;;;;;;;;;;;;;;;;;5037800;28;19984;-74
2024/01/09 02:40:22;;;;;;;;;;;;;;;;;;5058420;28;20003;-74
2024/01/09 02:43:08;;;;;;;;;;;;;;;;;;5045800;28;20003;-74
2024/01/09 02:45:55;;;;;;;;;;;;;;;;;;5037744;28;19913;-74
2024/01/09 02:48:41;;;;;;;;;;;;;;;;;;5053212;28;19927;-74
2024/01/09 02:51:27;;;;;;;;;;;;;;;;;;5056830;28;19921;-74
2024/01/09 02:54:13;;;;;;;;;;;;;;;;;;5055815;28;19917;-74
2024/01/09 02:56:59;;;;;;;;;;;;;;;;;;5056557;28;19913;-74
2024/01/09 02:59:46;;;;;;;;;;;;;;;;;;5055054;28;20558;-74
2024/01/09 03:02:32;;;;;;;;;;;;;;;;;;5056893;28;19924;-75
2024/01/09 03:05:18;;;;;;;;;;;;;;;;;;5055355;28;19927;-74
2024/01/09 03:08:04;;;;;;;;;;;;;;;;;;5056666;28;20360;-74
2024/01/09 03:10:51;;;;;;;;;;;;;;;;;;5056280;28;19917;-74
2024/01/09 03:13:37;;;;;;;;;;;;;;;;;;5057493;28;20008;-74
2024/01/09 03:16:23;;;;;;;;;;;;;;;;;;5056677;28;19931;-74
2024/01/09 03:19:09;;;;;;;;;;;;;;;;;;5045081;28;20311;-74
2024/01/09 03:21:56;;;;;;;;;;;;;;;;;;5037249;28;19917;-75
2024/01/09 03:24:42;;;;;;;;;;;;;;;;;;5042389;28;19913;-74
2024/01/09 03:27:28;;;;;;;;;;;;;;;;;;5057092;28;19923;-74
2024/01/09 03:30:14;;;;;;;;;;;;;;;;;;5035768;28;19959;-74
2024/01/09 03:33:00;;;;;;;;;;;;;;;;;;5046726;28;20012;-74
2024/01/09 03:35:47;;;;;;;;;;;;;;;;;;5054881;28;20340;-75
2024/01/09 03:38:33;;;;;;;;;;;;;;;;;;5055656;28;19913;-74
2024/01/09 03:41:19;;;;;;;;;;;;;;;;;;5037623;28;19913;-74
2024/01/09 03:44:05;;;;;;;;;;;;;;;;;;5056347;28;19913;-74
2024/01/09 03:46:52;;;;;;;;;;;;;;;;;;5054867;28;19992;-74
2024/01/09 03:49:38;;;;;;;;;;;;;;;;;;5056358;28;19970;-74
2024/01/09 03:52:25;;;;;;;;;;;;;;;;;;5064149;28;20212;-74
2024/01/09 03:55:11;;;;;;;;;;;;;;;;;;5074894;28;19985;-74
2024/01/09 03:57:57;;;;;;;;;;;;;;;;;;5058565;28;20347;-74
2024/01/09 04:00:44;;;;;;;;;;;;;;;;;;5050597;28;19952;-74
2024/01/09 04:03:30;;;;;;;;;;;;;;;;;;5055586;28;19974;-74
2024/01/09 04:06:16;;;;;;;;;;;;;;;;;;5056363;28;19913;-74
2024/01/09 04:09:02;;;;;;;;;;;;;;;;;;5056660;28;19913;-74
2024/01/09 04:11:48;;;;;;;;;;;;;;;;;;5040054;28;19928;-74
2024/01/09 04:14:35;;;;;;;;;;;;;;;;;;5053534;28;19923;-74
2024/01/09 04:17:21;;;;;;;;;;;;;;;;;;5054303;28;19923;-74
2024/01/09 04:20:08;;;;;;;;;;;;;;;;;;5028880;28;19920;-74
2024/01/09 04:22:54;;;;;;;;;;;;;;;;;;5036432;28;20014;-74
2024/01/09 04:25:40;;;;;;;;;;;;;;;;;;5035484;28;20313;-74
2024/01/09 04:28:27;;;;;;;;;;;;;;;;;;5043130;28;20042;-74
2024/01/09 04:31:13;;;;;;;;;;;;;;;;;;5048610;28;19913;-74
2024/01/09 04:33:59;;;;;;;;;;;;;;;;;;5044185;28;19953;-74
2024/01/09 04:36:45;;;;;;;;;;;;;;;;;;5053770;28;19936;-74
2024/01/09 04:39:32;;;;;;;;;;;;;;;;;;5053713;28;19913;-74
2024/01/09 04:42:18;;;;;;;;;;;;;;;;;;5054221;28;19924;-74
2024/01/09 04:45:04;;;;;;;;;;;;;;;;;;5054885;28;20325;-74
2024/01/09 04:47:50;;;;;;;;;;;;;;;;;;5053760;28;19917;-75
2024/01/09 04:50:37;;;;;;;;;;;;;;;;;;5047877;28;19917;-74
2024/01/09 04:53:23;;;;;;;;;;;;;;;;;;5053143;28;19913;-74
2024/01/09 04:56:09;;;;;;;;;;;;;;;;;;5054669;28;19917;-75
2024/01/09 04:58:55;;;;;;;;;;;;;;;;;;5044197;28;19935;-74
2024/01/09 05:01:42;;;;;;;;;;;;;;;;;;5039341;28;19988;-74
2024/01/09 05:04:28;;;;;;;;;;;;;;;;;;5054054;28;20467;-74
2024/01/09 05:07:14;;;;;;;;;;;;;;;;;;5032422;28;19920;-74
2024/01/09 05:10:00;;;;;;;;;;;;;;;;;;5034164;28;19960;-75
2024/01/09 05:12:46;;;;;;;;;;;;;;;;;;5038214;28;19921;-74
2024/01/09 05:15:35;;;;;;;;;;;;;;;;;;5053880;28;20439;-75
2024/01/09 05:18:21;;;;;;;;;;;;;;;;;;5053362;28;19917;-74
2024/01/09 05:21:07;;;;;;;;;;;;;;;;;;5054128;28;20050;-75
2024/01/09 05:23:54;;;;;;;;;;;;;;;;;;5053146;28;20489;-74
2024/01/09 05:26:41;;;;;;;;;;;;;;;;;;5052571;28;19912;-74
2024/01/09 05:29:27;;;;;;;;;;;;;;;;;;5036607;28;19921;-74
2024/01/09 05:32:13;;;;;;;;;;;;;;;;;;5021378;28;19913;-74
2024/01/09 05:35:01;;;;;;;;;;;;;;;;;;5040058;28;19917;-74
2024/01/09 05:37:47;;;;;;;;;;;;;;;;;;5054606;28;20028;-75
2024/01/09 05:40:33;;;;;;;;;;;;;;;;;;5051934;28;20321;-75
2024/01/09 05:43:20;;;;;;;;;;;;;;;;;;5053678;28;19917;-75
2024/01/09 05:46:06;;;;;;;;;;;;;;;;;;5034447;28;19994;-74
2024/01/09 05:48:52;;;;;;;;;;;;;;;;;;5043981;28;19913;-74
2024/01/09 05:51:39;;;;;;;;;;;;;;;;;;5051519;28;19916;-74
2024/01/09 05:54:25;;;;;;;;;;;;;;;;;;5052908;28;19921;-74
2024/01/09 05:57:11;;;;;;;;;;;;;;;;;;5052698;28;19916;-75
2024/01/09 05:59:57;;;;;;;;;;;;;;;;;;5052105;28;19928;-74
2024/01/09 06:02:44;;;;;;;;;;;;;;;;;;5053873;28;19920;-74
2024/01/09 06:05:30;;;;;;;;;;;;;;;;;;5051020;28;19916;-75
2024/01/09 06:08:16;;;;;;;;;;;;;;;;;;5055311;28;20356;-74
2024/01/09 06:11:02;;;;;;;;;;;;;;;;;;5053083;28;20010;-75
2024/01/09 06:13:48;;;;;;;;;;;;;;;;;;5047892;28;19916;-75
2024/01/09 06:16:35;;;;;;;;;;;;;;;;;;5051679;28;19917;-74
2024/01/09 06:19:21;;;;;;;;;;;;;;;;;;5048422;28;19917;-75
2024/01/09 06:22:07;;;;;;;;;;;;;;;;;;5052833;28;20652;-74
2024/01/09 06:24:54;;;;;;;;;;;;;;;;;;5052287;28;19916;-74
2024/01/09 06:27:40;;;;;;;;;;;;;;;;;;5043143;28;20280;-74
2024/01/09 06:30:26;;;;;;;;;;;;;;;;;;5052317;28;19929;-74
2024/01/09 06:33:13;;;;;;;;;;;;;;;;;;5053894;28;19917;-75
2024/01/09 06:36:00;;;;;;;;;;;;;;;;;;5053800;28;19999;-74
2024/01/09 06:38:46;;;;;;;;;;;;;;;;;;5034122;28;19927;-74
2024/01/09 06:41:33;;;;;;;;;;;;;;;;;;5033191;28;19913;-75
2024/01/09 06:44:19;;;;;;;;;;;;;;;;;;5047878;28;20479;-74
2024/01/09 06:47:05;;;;;;;;;;;;;;;;;;5054666;28;19944;-75
2024/01/09 06:49:51;;;;;;;;;;;;;;;;;;5034768;28;20253;-75
2024/01/09 06:52:38;;;;;;;;;;;;;;;;;;5033686;28;20002;-74
2024/01/09 06:55:24;;;;;;;;;;;;;;;;;;5050382;28;19975;-74
2024/01/09 06:58:12;;;;;;;;;;;;;;;;;;5051873;28;19944;-74
2024/01/09 07:00:58;;;;;;;;;;;;;;;;;;5040876;28;19917;-74
2024/01/09 07:03:45;;;;;;;;;;;;;;;;;;5050092;28;19912;-74
2024/01/09 07:06:31;;;;;;;;;;;;;;;;;;5051540;28;19913;-74
2024/01/09 07:09:18;;;;;;;;;;;;;;;;;;5050938;28;19931;-74
2024/01/09 07:12:04;;;;;;;;;;;;;;;;;;5050106;28;19925;-74
2024/01/09 07:14:50;;;;;;;;;;;;;;;;;;5024009;28;20630;-75
2024/01/09 07:17:36;;;;;;;;;;;;;;;;;;5034414;28;19921;-74
2024/01/09 07:20:23;;;;;;;;;;;;;;;;;;5035094;28;19914;-74
2024/01/09 07:23:09;;;;;;;;;;;;;;;;;;5045486;28;19999;-74
2024/01/09 07:25:55;;;;;;;;;;;;;;;;;;5055447;28;19912;-75
2024/01/09 07:28:42;;;;;;;;;;;;;;;;;;5054416;28;19917;-74
2024/01/09 07:31:28;;;;;;;;;;;;;;;;;;5054573;28;19928;-74
2024/01/09 07:34:14;;;;;;;;;;;;;;;;;;5055771;28;19921;-74
2024/01/09 07:37:00;;;;;;;;;;;;;;;;;;5056223;28;19913;-74
2024/01/09 07:39:48;;;;;;;;;;;;;;;;;;5055631;28;19916;-74
2024/01/09 07:42:34;;;;;;;;;;;;;;;;;;5044649;28;19913;-74
2024/01/09 07:45:20;;;;;;;;;;;;;;;;;;5055585;28;20236;-74
2024/01/09 07:48:06;;;;;;;;;;;;;;;;;;5034526;28;19956;-74
2024/01/09 07:50:54;;;;;;;;;;;;;;;;;;5048346;28;19959;-74
2024/01/09 07:53:40;;;;;;;;;;;;;;;;;;5036666;28;19913;-74
2024/01/09 07:56:27;;;;;;;;;;;;;;;;;;5038443;28;20268;-75
2024/01/09 07:59:13;;;;;;;;;;;;;;;;;;5035315;28;19931;-74
2024/01/09 08:02:01;;;;;;;;;;;;;;;;;;5054734;28;20602;-74
2024/01/09 08:04:47;;;;;;;;;;;;;;;;;;5055700;28;19916;-74
2024/01/09 08:07:33;;;;;;;;;;;;;;;;;;5056426;28;20129;-74
2024/01/09 08:10:20;;;;;;;;;;;;;;;;;;5025218;28;19968;-74
2024/01/09 08:13:06;;;;;;;;;;;;;;;;;;5033508;28;20006;-74
2024/01/09 08:15:54;;;;;;;;;;;;;;;;;;5028797;28;22482;-74
2024/01/09 08:18:40;;;;;;;;;;;;;;;;;;5055970;28;19924;-74
2024/01/09 08:21:26;;;;;;;;;;;;;;;;;;5037816;28;19917;-74
2024/01/09 08:24:18;;;;;;;;;;;;;;;;;;5047630;28;19947;-74
2024/01/09 08:27:04;;;;;;;;;;;;;;;;;;5055577;28;19913;-74
2024/01/09 08:29:50;;;;;;;;;;;;;;;;;;5053136;28;19913;-74
2024/01/09 08:32:36;;;;;;;;;;;;;;;;;;5053190;28;20400;-74
2024/01/09 08:35:23;;;;;;;;;;;;;;;;;;5049123;28;19982;-74
2024/01/09 08:38:09;;;;;;;;;;;;;;;;;;5055652;28;19956;-74
2024/01/09 08:40:56;;;;;;;;;;;;;;;;;;5049960;28;19913;-74
2024/01/09 08:43:42;;;;;;;;;;;;;;;;;;5050028;28;20349;-74
2024/01/09 08:46:28;;;;;;;;;;;;;;;;;;5050260;28;19917;-74
2024/01/09 08:49:14;;;;;;;;;;;;;;;;;;5049831;28;20002;-74
2024/01/09 08:52:01;;;;;;;;;;;;;;;;;;5049252;28;19917;-79
2024/01/09 08:54:47;;;;;;;;;;;;;;;;;;5039469;28;19990;-80
2024/01/09 08:57:33;;;;;;;;;;;;;;;;;;5041137;28;19924;-78
2024/01/09 09:00:19;;;;;;;;;;;;;;;;;;5037651;28;19974;-78
2024/01/09 09:03:06;;;;;;;;;;;;;;;;;;5052851;28;20141;-78
2024/01/09 09:05:52;;;;;;;;;;;;;;;;;;5035674;28;19928;-78
2024/01/09 09:08:39;;;;;;;;;;;;;;;;;;5034600;28;19975;-78
2024/01/09 09:11:25;;;;;;;;;;;;;;;;;;5052661;28;19913;-78
2024/01/09 09:14:11;;;;;;;;;;;;;;;;;;5053478;28;19923;-78
2024/01/09 09:16:58;;;;;;;;;;;;;;;;;;5053827;28;20371;-78
2024/01/09 09:19:44;;;;;;;;;;;;;;;;;;5052543;28;20264;-77
2024/01/09 09:22:30;;;;;;;;;;;;;;;;;;5048325;28;19913;-78
2024/01/09 09:25:16;;;;;;;;;;;;;;;;;;5051785;28;20240;-78
2024/01/09 09:28:03;;;;;;;;;;;;;;;;;;5045784;28;19943;-78
2024/01/09 09:30:49;;;;;;;;;;;;;;;;;;5053830;28;19912;-78
2024/01/09 09:33:35;;;;;;;;;;;;;;;;;;5051854;28;19913;-78
2024/01/09 09:36:21;;;;;;;;;;;;;;;;;;5031687;28;19917;-78
2024/01/09 09:39:08;;;;;;;;;;;;;;;;;;5037340;28;19912;-78
2024/01/09 09:41:54;;;;;;;;;;;;;;;;;;5053573;28;19917;-78
2024/01/09 09:44:42;;;;;;;;;;;;;;;;;;5039732;28;19943;-76
2024/01/09 09:47:28;;;;;;;;;;;;;;;;;;5045603;28;20627;-75
2024/01/09 09:50:14;;;;;;;;;;;;;;;;;;5051170;28;19928;-75
2024/01/09 09:53:00;;;;;;;;;;;;;;;;;;5044506;28;20564;-76
2024/01/09 09:55:47;;;;;;;;;;;;;;;;;;5034343;28;19964;-75
2024/01/09 09:58:33;;;;;;;;;;;;;;;;;;5046386;28;20016;-75
2024/01/09 10:01:19;;;;;;;;;;;;;;;;;;5038290;28;19956;-75
2024/01/09 10:04:05;;;;;;;;;;;;;;;;;;5050775;28;19917;-76
2024/01/09 10:06:52;;;;;;;;;;;;;;;;;;5038984;28;19917;-76
2024/01/09 10:09:42;;;;;;;;;;;;;;;;;;5052238;28;20340;-76
2024/01/09 10:12:28;;;;;;;;;;;;;;;;;;5051136;28;19916;-75
2024/01/09 10:15:17;;;;;;;;;;;;;;;;;;5051494;28;19968;-75
2024/01/09 10:18:03;;;;;;;;;;;;;;;;;;5050006;28;19944;-75
2024/01/09 10:20:49;;;;;;;;;;;;;;;;;;5050053;28;19956;-75
2024/01/09 10:23:39;;;;;;;;;;;;;;;;;;5045940;28;19924;-75
2024/01/09 10:26:26;;;;;;;;;;;;;;;;;;5019199;28;20321;-75
2024/01/09 10:29:12;;;;;;;;;;;;;;;;;;5043476;28;20487;-75
2024/01/09 10:31:59;;;;;;;;;;;;;;;;;;5051373;28;19920;-76
2024/01/09 10:34:45;;;;;;;;;;;;;;;;;;5052546;28;20418;-77
2024/01/09 10:37:31;;;;;;;;;;;;;;;;;;5039353;28;19927;-76
2024/01/09 10:40:17;;;;;;;;;;;;;;;;;;5050875;28;20317;-76
2024/01/09 10:43:04;;;;;;;;;;;;;;;;;;5032998;28;19924;-76
2024/01/09 10:45:52;;;;;;;;;;;;;;;;;;5044147;28;19917;-76
2024/01/09 10:48:38;;;;;;;;;;;;;;;;;;5050114;28;20277;-76
2024/01/09 10:51:24;;;;;;;;;;;;;;;;;;5051337;28;19920;-75
2024/01/09 10:54:11;;;;;;;;;;;;;;;;;;5050070;28;19944;-75
2024/01/09 10:56:57;;;;;;;;;;;;;;;;;;5050835;28;19924;-75
2024/01/09 10:59:43;;;;;;;;;;;;;;;;;;5049276;28;19939;-75
2024/01/09 11:02:35;;;;;;;;;;;;;;;;;;5037889;28;19917;-75
2024/01/09 11:05:22;;;;;;;;;;;;;;;;;;5053796;28;19976;-75
2024/01/09 11:08:08;;;;;;;;;;;;;;;;;;5047524;28;19917;-75
2024/01/09 11:10:54;;;;;;;;;;;;;;;;;;5054452;28;19912;-75
2024/01/09 11:13:41;;;;;;;;;;;;;;;;;;5048700;28;19921;-76
2024/01/09 11:16:29;;;;;;;;;;;;;;;;;;5054750;28;19975;-76
2024/01/09 11:19:16;;;;;;;;;;;;;;;;;;5054088;28;19948;-76
2024/01/09 11:22:02;;;;;;;;;;;;;;;;;;5052258;28;19921;-76
2024/01/09 11:24:48;;;;;;;;;;;;;;;;;;5035060;28;20320;-78
2024/01/09 11:27:34;;;;;;;;;;;;;;;;;;5034239;28;19964;-78
2024/01/09 11:30:21;;;;;;;;;;;;;;;;;;5054618;28;19917;-77
2024/01/09 11:33:07;;;;;;;;;;;;;;;;;;5053945;28;19935;-78
2024/01/09 11:35:53;;;;;;;;;;;;;;;;;;5054399;28;20265;-78
2024/01/09 11:38:40;;;;;;;;;;;;;;;;;;5049356;28;19913;-77
2024/01/09 11:41:26;;;;;;;;;;;;;;;;;;5055138;28;19958;-77
2024/01/09 11:44:15;;;;;;;;;;;;;;;;;;5046276;28;20319;-77
2024/01/09 11:47:02;;;;;;;;;;;;;;;;;;5055586;28;19913;-77
2024/01/09 11:49:48;;;;;;;;;;;;;;;;;;5055508;28;19952;-77
2024/01/09 11:52:35;;;;;;;;;;;;;;;;;;5037239;28;20633;-77
2024/01/09 11:55:22;;;;;;;;;;;;;;;;;;5032880;28;19932;-77
2024/01/09 11:58:08;;;;;;;;;;;;;;;;;;5048655;28;19924;-77
2024/01/09 12:00:54;;;;;;;;;;;;;;;;;;5054121;28;20304;-77
2024/01/09 12:03:40;;;;;;;;;;;;;;;;;;5050704;28;19927;-77
2024/01/09 12:06:28;;;;;;;;;;;;;;;;;;5043782;28;20317;-77
2024/01/09 12:09:15;;;;;;;;;;;;;;;;;;5051630;28;19917;-76
2024/01/09 12:12:01;;;;;;;;;;;;;;;;;;5055723;28;19913;-77
2024/01/09 12:14:47;;;;;;;;;;;;;;;;;;5053884;28;19928;-77
2024/01/09 12:17:33;;;;;;;;;;;;;;;;;;5034960;28;20433;-77
2024/01/09 12:20:20;;;;;;;;;;;;;;;;;;5034204;28;20000;-77
2024/01/09 12:23:06;;;;;;;;;;;;;;;;;;5046066;28;19928;-77
2024/01/09 12:25:53;;;;;;;;;;;;;;;;;;5053682;28;20653;-77
2024/01/09 12:28:39;;;;;;;;;;;;;;;;;;5053682;28;19913;-77
2024/01/09 12:31:25;;;;;;;;;;;;;;;;;;5040597;28;20459;-77
2024/01/09 12:34:11;;;;;;;;;;;;;;;;;;5055102;28;19917;-78
2024/01/09 12:36:58;;;;;;;;;;;;;;;;;;5062309;28;19920;-77
2024/01/09 12:39:44;;;;;;;;;;;;;;;;;;5075202;28;19947;-77
2024/01/09 12:42:30;;;;;;;;;;;;;;;;;;5069131;28;19917;-77
2024/01/09 12:45:17;;;;;;;;;;;;;;;;;;5053250;28;19928;-77
2024/01/09 12:48:05;;;;;;;;;;;;;;;;;;5053113;28;20385;-77
2024/01/09 12:50:51;;;;;;;;;;;;;;;;;;5055436;28;20214;-77
2024/01/09 12:53:37;;;;;;;;;;;;;;;;;;5041342;28;19924;-77
2024/01/09 12:56:23;;;;;;;;;;;;;;;;;;5045737;28;19974;-77
2024/01/09 12:59:10;;;;;;;;;;;;;;;;;;5046808;28;19949;-77
2024/01/09 13:01:57;;;;;;;;;;;;;;;;;;5055100;28;19916;-77
2024/01/09 13:04:46;;;;;;;;;;;;;;;;;;5053647;28;19917;-77
2024/01/09 13:07:34;;;;;;;;;;;;;;;;;;5052444;28;20012;-77
2024/01/09 13:10:20;;;;;;;;;;;;;;;;;;5051558;28;20382;-78
2024/01/09 13:13:07;;;;;;;;;;;;;;;;;;5054508;28;20321;-77
2024/01/09 13:15:53;;;;;;;;;;;;;;;;;;5034000;28;19920;-77
2024/01/09 13:18:39;;;;;;;;;;;;;;;;;;5032998;28;19927;-77
2024/01/09 13:21:25;;;;;;;;;;;;;;;;;;5033607;28;19913;-77
2024/01/09 13:24:12;;;;;;;;;;;;;;;;;;5035816;28;20000;-77
2024/01/09 13:26:58;;;;;;;;;;;;;;;;;;5041801;28;20336;-78
2024/01/09 13:29:44;;;;;;;;;;;;;;;;;;5053383;28;19917;-77
2024/01/09 13:32:30;;;;;;;;;;;;;;;;;;5044735;28;19928;-78
2024/01/09 13:35:16;;;;;;;;;;;;;;;;;;5052488;28;19917;-77
2024/01/09 13:38:05;;;;;;;;;;;;;;;;;;5053034;28;20610;-78
2024/01/09 13:40:51;;;;;;;;;;;;;;;;;;5040117;28;19924;-77
2024/01/09 13:43:39;;;;;;;;;;;;;;;;;;5038796;28;19924;-77
2024/01/09 13:46:25;;;;;;;;;;;;;;;;;;5041046;28;20314;-78
2024/01/09 13:49:12;;;;;;;;;;;;;;;;;;5054367;28;19960;-77
2024/01/09 13:52:00;;;;;;;;;;;;;;;;;;5039503;28;19916;-77
2024/01/09 13:54:47;;;;;;;;;;;;;;;;;;5054141;28;19924;-77
2024/01/09 13:57:33;;;;;;;;;;;;;;;;;;5053830;28;20299;-77
2024/01/09 14:00:19;;;;;;;;;;;;;;;;;;5033959;28;19920;-77
2024/01/09 14:03:06;;;;;;;;;;;;;;;;;;5050146;28;19917;-77
2024/01/09 14:05:52;;;;;;;;;;;;;;;;;;5042679;28;19919;-77
2024/01/09 14:08:38;;;;;;;;;;;;;;;;;;5052489;28;19924;-77
2024/01/09 14:11:25;;;;;;;;;;;;;;;;;;5051617;28;19916;-77
2024/01/09 14:14:11;;;;;;;;;;;;;;;;;;5054041;28;19913;-77
2024/01/09 14:16:58;;;;;;;;;;;;;;;;;;5052434;28;19927;-77
2024/01/09 14:19:44;;;;;;;;;;;;;;;;;;5052276;28;19916;-77
2024/01/09 14:22:30;;;;;;;;;;;;;;;;;;5054285;28;19912;-77
2024/01/09 14:25:16;;;;;;;;;;;;;;;;;;5040286;28;19920;-77
2024/01/09 14:28:03;;;;;;;;;;;;;;;;;;5037337;28;19913;-77
2024/01/09 14:30:49;;;;;;;;;;;;;;;;;;5055623;28;19921;-77
2024/01/09 14:33:35;;;;;;;;;;;;;;;;;;5058032;28;19913;-77
2024/01/09 14:36:22;;;;;;;;;;;;;;;;;;5056690;28;19916;-77
2024/01/09 14:39:08;;;;;;;;;;;;;;;;;;5055576;28;19921;-77
2024/01/09 14:41:54;;;;;;;;;;;;;;;;;;5055605;28;19916;-77
2024/01/09 14:44:41;;;;;;;;;;;;;;;;;;5055654;28;19959;-77
2024/01/09 14:47:27;;;;;;;;;;;;;;;;;;5057286;28;20000;-77
2024/01/09 14:50:14;;;;;;;;;;;;;;;;;;5055179;28;20387;-77
2024/01/09 14:53:00;;;;;;;;;;;;;;;;;;5057428;28;19913;-77
2024/01/09 14:55:47;;;;;;;;;;;;;;;;;;5055040;28;19986;-77
2024/01/09 14:58:34;;;;;;;;;;;;;;;;;;5054574;28;19932;-77
2024/01/09 15:01:20;;;;;;;;;;;;;;;;;;5056370;28;19916;-77
2024/01/09 15:04:06;;;;;;;;;;;;;;;;;;5055201;28;20252;-77
2024/01/09 15:06:52;;;;;;;;;;;;;;;;;;5029215;28;19913;-77
2024/01/09 15:09:39;;;;;;;;;;;;;;;;;;5036038;28;19913;-77
2024/01/09 15:12:25;;;;;;;;;;;;;;;;;;5036640;28;19913;-77
2024/01/09 15:15:11;;;;;;;;;;;;;;;;;;5022377;28;19921;-77
2024/01/09 15:17:59;;;;;;;;;;;;;;;;;;5022309;28;20257;-77
2024/01/09 15:20:45;;;;;;;;;;;;;;;;;;5036587;28;19924;-77
2024/01/09 15:23:31;;;;;;;;;;;;;;;;;;5049545;28;20325;-77
2024/01/09 15:26:18;;;;;;;;;;;;;;;;;;5055691;28;19916;-77
2024/01/09 15:29:04;;;;;;;;;;;;;;;;;;5054424;28;19913;-77
2024/01/09 15:31:51;;;;;;;;;;;;;;;;;;5054172;28;19924;-77
2024/01/09 15:34:37;;;;;;;;;;;;;;;;;;5055138;28;20185;-77
2024/01/09 15:37:23;;;;;;;;;;;;;;;;;;5053682;28;19974;-78
2024/01/09 15:40:13;;;;;;;;;;;;;;;;;;5054232;28;19917;-76
2024/01/09 15:42:59;;;;;;;;;;;;;;;;;;5056031;28;19948;-76
2024/01/09 15:45:45;;;;;;;;;;;;;;;;;;5054197;28;20033;-77
2024/01/09 15:48:31;;;;;;;;;;;;;;;;;;5055668;28;19952;-76
2024/01/09 15:51:19;;;;;;;;;;;;;;;;;;5054596;28;19962;-77
2024/01/09 15:54:05;;;;;;;;;;;;;;;;;;5055793;28;20264;-77
2024/01/09 15:56:51;;;;;;;;;;;;;;;;;;5055159;28;19947;-77
2024/01/09 15:59:42;;;;;;;;;;;;;;;;;;5064675;28;20325;-76
2024/01/09 16:02:29;;;;;;;;;;;;;;;;;;5054616;28;19920;-76
2024/01/09 16:05:15;;;;;;;;;;;;;;;;;;5040998;28;19921;-76
2024/01/09 16:08:01;;;;;;;;;;;;;;;;;;5042277;28;20267;-77
2024/01/09 16:10:47;;;;;;;;;;;;;;;;;;5055854;28;19995;-76
2024/01/09 16:13:34;;;;;;;;;;;;;;;;;;5041207;28;20007;-75
2024/01/09 16:16:23;;;;;;;;;;;;;;;;;;5055777;28;20301;-76
2024/01/09 16:19:09;;;;;;;;;;;;;;;;;;5040278;28;19948;-77
2024/01/09 16:21:55;;;;;;;;;;;;;;;;;;5038087;28;19928;-76
2024/01/09 16:24:42;;;;;;;;;;;;;;;;;;5053607;28;19927;-76
2024/01/09 16:27:28;;;;;;;;;;;;;;;;;;5042850;28;19921;-76
2024/01/09 16:30:23;;;;;;;;;;;;;;;;;;5044008;28;20453;-76
2024/01/09 16:33:09;;;;;;;;;;;;;;;;;;5043290;28;19916;-76
2024/01/09 16:35:58;;;;;;;;;;;;;;;;;;5048958;28;19921;-76
2024/01/09 16:38:44;;;;;;;;;;;;;;;;;;5249523;22;19925;-77
2024/01/09 16:41:31;;;;;;;;;;;;;;;;;;5028312;28;19925;-76
2024/01/09 16:44:17;;;;;;;;;;;;;;;;;;5050313;28;19917;-76
2024/01/09 16:47:04;;;;;;;;;;;;;;;;;;5021748;28;19917;-76
2024/01/09 16:49:51;;;;;;;;;;;;;;;;;;5257250;23;20019;-75
2024/01/09 16:55:31;;;;;;;;;;;;;;;;;;4720075;23;21781;-81
2024/01/09 16:58:18;;;;;;;;;;;;;;;;;;5047344;28;19940;-76
2024/01/09 17:01:04;;;;;;;;;;;;;;;;;;5050866;28;19917;-76
2024/01/09 17:03:51;;;;;;;;;;;;;;;;;;5051081;28;20000;-77
2024/01/09 17:06:46;;;;;;;;;;;;;;;;;;5046052;28;19916;-76
2024/01/09 17:09:32;;;;;;;;;;;;;;;;;;5040487;28;19912;-76
2024/01/09 17:12:19;;;;;;;;;;;;;;;;;;5053845;28;19912;-76
2024/01/09 17:15:05;;;;;;;;;;;;;;;;;;5052135;28;19920;-76
2024/01/09 17:17:52;;;;;;;;;;;;;;;;;;5040601;28;19943;-76
2024/01/09 17:20:38;;;;;;;;;;;;;;;;;;5052628;28;19917;-76
2024/01/09 17:23:25;;;;;;;;;;;;;;;;;;5055203;28;20004;-76
2024/01/09 17:26:12;;;;;;;;;;;;;;;;;;5049815;28;19917;-75
2024/01/09 17:28:58;;;;;;;;;;;;;;;;;;5055405;28;19913;-75
2024/01/09 17:31:44;;;;;;;;;;;;;;;;;;5042092;28;19974;-75
2024/01/09 17:34:31;;;;;;;;;;;;;;;;;;5054471;28;20023;-76
2024/01/09 17:37:17;;;;;;;;;;;;;;;;;;5055297;28;19916;-76
2024/01/09 17:40:04;;;;;;;;;;;;;;;;;;5053027;28;19982;-75
2024/01/09 17:42:51;;;;;;;;;;;;;;;;;;5053890;28;19962;-76
2024/01/09 17:45:38;;;;;;;;;;;;;;;;;;5038373;28;19927;-77
2024/01/09 17:48:25;;;;;;;;;;;;;;;;;;5053165;28;20396;-76
2024/01/09 17:51:11;;;;;;;;;;;;;;;;;;5044682;28;19987;-76
2024/01/09 17:53:57;;;;;;;;;;;;;;;;;;5040972;28;19917;-76
2024/01/09 17:56:44;;;;;;;;;;;;;;;;;;5073456;28;19920;-76
2024/01/09 17:59:30;;;;;;;;;;;;;;;;;;5064350;28;20597;-76
2024/01/09 18:02:18;;;;;;;;;;;;;;;;;;5090899;28;19920;-76
2024/01/09 18:05:05;;;;;;;;;;;;;;;;;;5090561;28;19912;-76
2024/01/09 18:07:51;;;;;;;;;;;;;;;;;;5072780;28;19920;-76
2024/01/09 18:10:39;;;;;;;;;;;;;;;;;;5076515;28;19916;-77
2024/01/09 18:13:25;;;;;;;;;;;;;;;;;;5086995;28;19916;-76
2024/01/09 18:16:12;;;;;;;;;;;;;;;;;;5080365;28;19971;-76
2024/01/09 18:18:58;;;;;;;;;;;;;;;;;;5078914;28;19967;-77
2024/01/09 18:21:44;;;;;;;;;;;;;;;;;;5092459;28;19920;-76
2024/01/09 18:24:32;;;;;;;;;;;;;;;;;;5078902;28;19912;-77
2024/01/09 18:27:19;;;;;;;;;;;;;;;;;;5077422;28;19919;-76
2024/01/09 18:30:05;;;;;;;;;;;;;;;;;;5078441;28;19995;-76
2024/01/09 18:32:52;;;;;;;;;;;;;;;;;;5078650;28;20620;-76
2024/01/09 18:35:39;;;;;;;;;;;;;;;;;;5078837;28;20050;-76
2024/01/09 18:38:25;;;;;;;;;;;;;;;;;;5079187;28;19920;-76
2024/01/09 18:41:11;;;;;;;;;;;;;;;;;;5079047;28;19973;-76
2024/01/09 18:43:58;;;;;;;;;;;;;;;;;;5077898;28;19912;-77
2024/01/09 18:46:45;;;;;;;;;;;;;;;;;;5072234;28;19912;-77
2024/01/09 18:49:32;;;;;;;;;;;;;;;;;;5078454;28;19978;-77
2024/01/09 18:52:18;;;;;;;;;;;;;;;;;;5076236;28;19993;-78
2024/01/09 18:55:06;;;;;;;;;;;;;;;;;;5074564;28;20285;-76
2024/01/09 18:57:52;;;;;;;;;;;;;;;;;;5078535;28;19924;-75
2024/01/09 19:00:39;;;;;;;;;;;;;;;;;;5069248;28;19937;-75